עמוד ראשי
METAR-TAF:

METAR-TAF

שדות תעופה :

Bandar Lengeh, איראן

קו רוחב: 26-35N, קו אורך: 054-50E, גובה: 14מטר

תצפית מזג אוויר נוכחית

הדו"ח נערך לפני 2 שעות ו 9דקות, בשעה 18:00 UTC
רוח רגועה
טמפרטורת 33 צלסיוס
לחות 53%
לחץ 996 hPa
ראות: 4000מטר
אובך,

METAR: OIBL 131800Z 00000KT 4000 HZ NSC 33/22 Q0996

זמן: 00:39 (20:09 UTC)


TAF: חסר

תצפיות ותחזיות מזג אוויר לגבי יותר מ- 4,000 שדות תעופה ברחבי העולם. דוחות METAR ו- TAF.

התחנות הזמינות מסומנות בנקודות צהובות ואדומות על גבי המפה.

העבר את העכבר לנקודה הצבעונית על מנת לראות את שם התחנה.

לאחר מכן, לחץ כדי לראות את תוכן ואת תחזיות מזג האוויר.

כדי לשנות את המפה: לחץ על הכפתורים הירוקים עם הפלוס השחור כדי להתקרב; על הכפתור הירוק עם המקף כדי להתרחק; או בחיצים הירוקים למפות סמוכות.


METAR-TAF: